Time;durP1;ratioP1;P1;durP2;ratioP2;P2;SDS_P1;SDS_P2;PMS_P1;PMS_P2;Temp;Humidity;BMP_temperature;BMP_pressure;BME280_temperature;BME280_humidity;BME280_pressure;Samples;Min_cycle;Max_cycle;Signal;HPM_P1;HPM_P2
2022/04/26 03:36:42;;;;;;;55.40;50.80;;;;;;;6.44;91.82;97590.71;105427;1286;23347;-86
2022/04/26 03:39:10;;;;;;;56.80;52.00;;;;;;;6.46;91.97;97590.86;105355;1286;25373;-87
2022/04/26 03:41:38;;;;;;;58.40;53.60;;;;;;;6.46;91.96;97592.52;105358;1286;22563;-88
2022/04/26 03:44:06;;;;;;;58.00;53.00;;;;;;;6.46;92.02;97592.80;105580;1286;22725;-88
2022/04/26 03:46:34;;;;;;;56.00;50.80;;;;;;;6.46;91.86;97592.03;105142;1286;22698;-86
2022/04/26 03:49:01;;;;;;;55.40;50.80;;;;;;;6.48;91.76;97595.45;105284;1286;22577;-87
2022/04/26 03:51:30;;;;;;;56.00;51.00;;;;;;;6.50;91.74;97595.86;105307;1286;23204;-87
2022/04/26 03:53:58;;;;;;;55.70;50.30;;;;;;;6.54;91.90;97601.83;105411;1286;22564;-86
2022/04/26 03:56:33;;;;;;;59.70;54.70;;;;;;;6.53;91.70;97603.55;106782;1285;22798;-84
2022/04/26 03:59:01;;;;;;;59.10;54.10;;;;;;;6.53;91.99;97605.63;106246;1286;22563;-87
2022/04/26 04:01:28;;;;;;;53.30;48.80;;;;;;;6.56;91.76;97607.50;105492;1286;22694;-87
2022/04/26 04:03:56;;;;;;;52.10;47.80;;;;;;;6.57;91.73;97610.91;105306;1286;23072;-88
2022/04/26 04:06:24;;;;;;;53.80;49.20;;;;;;;6.59;91.75;97612.73;105315;1285;22722;-84
2022/04/26 04:08:52;;;;;;;55.90;51.10;;;;;;;6.61;91.75;97617.52;105327;1285;25383;-84
2022/04/26 04:11:20;;;;;;;56.00;51.50;;;;;;;6.63;91.92;97621.14;105452;1286;22660;-88
2022/04/26 04:13:48;;;;;;;55.60;51.10;;;;;;;6.63;91.72;97625.44;105415;1286;25332;-87
2022/04/26 04:16:16;;;;;;;52.90;48.50;;;;;;;6.62;91.69;97626.49;105416;1286;22543;-87
2022/04/26 04:21:31;;;;;;;51.80;47.20;;;;;;;6.65;91.75;97637.02;105317;1286;23128;-88
2022/04/26 04:23:59;;;;;;;56.40;51.70;;;;;;;6.62;91.56;97643.42;105391;1286;22752;-88
2022/04/26 04:26:27;;;;;;;52.30;47.70;;;;;;;6.57;91.55;97642.44;104989;1286;24231;-88
2022/04/26 04:28:55;;;;;;;51.30;47.00;;;;;;;6.56;91.53;97644.86;105405;1286;22552;-87
2022/04/26 04:31:23;;;;;;;50.90;46.80;;;;;;;6.59;91.78;97650.41;105459;1286;22555;-88
2022/04/26 04:33:51;;;;;;;54.20;49.40;;;;;;;6.63;91.73;97651.83;105497;1286;25059;-88
2022/04/26 04:36:18;;;;;;;54.90;50.50;;;;;;;6.67;91.81;97649.71;105480;1286;22569;-87
2022/04/26 04:38:47;;;;;;;54.50;50.10;;;;;;;6.67;91.82;97653.56;105421;1286;22559;-88
2022/04/26 04:41:15;;;;;;;54.70;50.20;;;;;;;6.66;91.80;97659.08;105464;1286;22554;-88
2022/04/26 04:43:43;;;;;;;52.90;48.50;;;;;;;6.63;91.57;97658.52;105429;1286;22720;-89
2022/04/26 04:46:11;;;;;;;57.40;52.70;;;;;;;6.64;91.75;97661.66;105358;1286;22578;-91
2022/04/26 04:48:39;;;;;;;56.90;52.30;;;;;;;6.65;91.64;97663.80;105529;1286;22949;-87
2022/04/26 04:51:07;;;;;;;61.10;56.20;;;;;;;6.66;91.88;97666.58;105498;1286;22567;-85
2022/04/26 04:53:37;;;;;;;67.60;62.10;;;;;;;6.70;91.90;97666.34;105355;1286;22707;-87
2022/04/26 04:56:10;;;;;;;66.50;61.30;;;;;;;6.71;91.74;97669.02;105304;1286;22581;-87
2022/04/26 04:58:38;;;;;;;62.90;57.90;;;;;;;6.69;91.62;97669.34;105515;1286;22567;-86
2022/04/26 05:01:06;;;;;;;62.50;57.60;;;;;;;6.71;91.76;97675.17;105216;1286;22529;-87
2022/04/26 05:03:34;;;;;;;57.70;53.10;;;;;;;6.74;91.70;97675.36;105276;1287;22543;-88
2022/04/26 05:06:02;;;;;;;54.60;49.70;;;;;;;6.76;91.76;97680.58;105455;1286;24443;-85
2022/04/26 05:08:30;;;;;;;53.60;49.10;;;;;;;6.75;91.62;97684.94;105366;1286;25427;-87
2022/04/26 05:10:57;;;;;;;56.50;51.40;;;;;;;6.73;91.62;97688.22;105335;1286;22562;-87
2022/04/26 05:13:25;;;;;;;55.60;50.90;;;;;;;6.73;91.53;97689.35;105354;1286;22561;-87
2022/04/26 05:15:53;;;;;;;56.10;51.50;;;;;;;6.71;91.67;97693.65;105475;1286;22697;-85
2022/04/26 05:18:21;;;;;;;51.10;47.00;;;;;;;6.75;91.75;97693.65;106101;1286;25277;-87
2022/04/26 05:20:49;;;;;;;54.80;50.50;;;;;;;6.76;91.53;97700.51;105615;1286;25364;-86
2022/04/26 05:26:03;;;;;;;59.40;54.40;;;;;;;6.82;91.78;97703.20;105406;1285;22659;-85
2022/04/26 05:28:33;;;;;;;58.20;53.40;;;;;;;6.82;91.57;97708.29;105390;1286;22563;-86
2022/04/26 05:31:01;;;;;;;52.20;47.40;;;;;;;6.81;91.65;97711.46;105285;1287;24265;-88
2022/04/26 05:33:29;;;;;;;54.90;50.20;;;;;;;6.80;91.59;97714.27;105343;1286;22501;-86
2022/04/26 05:35:57;;;;;;;57.40;52.60;;;;;;;6.79;91.57;97715.87;107006;1286;23943;-86
2022/04/26 05:38:52;;;;;;;56.60;51.70;;;;;;;6.79;91.49;97712.23;105912;1286;22632;-85
2022/04/26 05:41:19;;;;;;;57.40;52.40;;;;;;;6.78;91.51;97717.16;105392;1285;22579;-87
2022/04/26 05:43:47;;;;;;;47.80;44.00;;;;;;;6.81;91.69;97719.17;105416;1286;24345;-85
2022/04/26 05:46:15;;;;;;;53.90;49.60;;;;;;;6.84;91.63;97717.06;105224;1286;22579;-84
2022/04/26 05:48:43;;;;;;;52.70;48.20;;;;;;;6.80;91.53;97716.89;105508;1286;24110;-88
2022/04/26 05:51:11;;;;;;;50.50;46.10;;;;;;;6.80;91.63;97722.34;105524;1286;25235;-88
2022/04/26 05:53:41;;;;;;;45.30;41.40;;;;;;;6.83;91.74;97720.50;105396;1287;24341;-90
2022/04/26 05:56:12;;;;;;;43.50;39.90;;;;;;;6.86;91.68;97721.17;105383;1286;24236;-88
2022/04/26 05:58:40;;;;;;;45.70;41.80;;;;;;;6.89;91.64;97723.89;105616;1286;22880;-85
2022/04/26 06:01:08;;;;;;;47.10;43.20;;;;;;;6.93;91.78;97728.57;105285;1286;22575;-89
2022/04/26 06:03:36;;;;;;;46.20;42.00;;;;;;;7.00;91.93;97730.55;105409;1286;22698;-87
2022/04/26 06:06:04;;;;;;;44.40;40.70;;;;;;;7.07;91.84;97730.56;105599;1286;22623;-86
2022/04/26 06:08:32;;;;;;;64.80;43.20;;;;;;;7.14;91.84;97731.27;106146;1286;26646;-87
2022/04/26 06:11:00;;;;;;;47.00;43.10;;;;;;;7.18;91.53;97734.86;105760;1286;22656;-87
2022/04/26 06:13:28;;;;;;;52.90;48.40;;;;;;;7.25;91.63;97731.96;105251;1286;22572;-87
2022/04/26 06:15:56;;;;;;;52.50;48.40;;;;;;;7.32;91.63;97731.44;105318;1286;22495;-85
2022/04/26 06:18:24;;;;;;;52.00;47.70;;;;;;;7.34;91.59;97728.77;105347;1286;22552;-86
2022/04/26 06:20:52;;;;;;;50.20;45.60;;;;;;;7.36;91.38;97730.80;105294;1287;23268;-88
2022/04/26 06:23:20;;;;;;;49.30;45.40;;;;;;;7.39;91.32;97737.85;105379;1286;22560;-86
2022/04/26 06:25:48;;;;;;;55.10;50.60;;;;;;;7.41;91.28;97736.28;105248;1287;22630;-86
2022/04/26 06:28:16;;;;;;;53.30;48.90;;;;;;;7.44;91.10;97739.41;105250;1287;22601;-86
2022/04/26 06:30:44;;;;;;;55.80;50.90;;;;;;;7.43;91.11;97734.77;105464;1286;25388;-85
2022/04/26 06:33:13;;;;;;;56.10;51.70;;;;;;;7.43;90.97;97734.39;105368;1286;22730;-85
2022/04/26 06:35:46;;;;;;;53.20;48.90;;;;;;;7.42;91.12;97734.39;105432;1286;22557;-86
2022/04/26 06:38:16;;;;;;;51.80;47.30;;;;;;;7.49;91.15;97739.43;105361;1286;25274;-86
2022/04/26 06:40:46;;;;;;;55.60;51.00;;;;;;;7.51;90.84;97738.55;105371;1287;22604;-84
2022/04/26 06:43:14;;;;;;;53.00;48.50;;;;;;;7.52;91.06;97739.19;105430;1286;22632;-85
2022/04/26 06:45:44;;;;;;;48.90;44.90;;;;;;;7.53;90.86;97739.45;105220;1287;22728;-86
2022/04/26 06:48:15;;;;;;;46.90;43.00;;;;;;;7.51;90.62;97739.73;105383;1286;24352;-86
2022/04/26 06:50:44;;;;;;;47.80;43.40;;;;;;;7.51;90.70;97739.95;105496;1286;26621;-85
2022/04/26 06:53:15;;;;;;;56.10;50.80;;;;;;;7.55;90.85;97741.79;105418;1286;22884;-86
2022/04/26 06:55:43;;;;;;;51.60;47.40;;;;;;;7.61;91.07;97741.13;105067;1287;25373;-86
2022/04/26 06:58:11;;;;;;;48.80;44.80;;;;;;;7.65;90.94;97747.16;105409;1286;22599;-87
2022/04/26 07:00:39;;;;;;;48.90;44.80;;;;;;;7.64;90.42;97748.41;105564;1286;22560;-87
2022/04/26 07:03:07;;;;;;;56.30;51.20;;;;;;;7.66;90.52;97750.42;105420;1286;26643;-87
2022/04/26 07:05:35;;;;;;;59.90;54.60;;;;;;;7.68;90.32;97754.85;105511;1286;25327;-86
2022/04/26 07:08:03;;;;;;;54.80;50.10;;;;;;;7.69;90.28;97752.10;105785;1286;24249;-88
2022/04/26 07:10:31;;;;;;;58.10;53.30;;;;;;;7.69;90.06;97752.86;105247;1286;22553;-86
2022/04/26 07:12:59;;;;;;;51.00;46.80;;;;;;;7.67;90.10;97755.56;107648;1286;22652;-83
2022/04/26 07:15:27;;;;;;;48.90;44.60;;;;;;;7.65;89.53;97754.67;108816;1286;22490;-85
2022/04/26 07:17:55;;;;;;;51.00;46.60;;;;;;;7.68;90.02;97760.98;108917;1285;22735;-85
2022/04/26 07:20:23;;;;;;;51.90;47.20;;;;;;;7.74;89.79;97764.45;108112;1286;23807;-85
2022/04/26 07:22:51;;;;;;;55.10;50.70;;;;;;;7.82;89.96;97763.78;107484;1286;25428;-86
2022/04/26 07:29:25;;;;;;;60.00;55.00;;;;;;;8.02;90.41;97761.33;108584;1286;22583;-87
2022/04/26 07:31:54;;;;;;;61.30;56.20;;;;;;;8.12;90.30;97758.44;106617;1287;25131;-87
2022/04/26 07:34:25;;;;;;;53.80;49.40;;;;;;;8.22;89.85;97761.80;105552;1287;27233;-90
2022/04/26 07:36:59;;;;;;;53.30;49.10;;;;;;;8.32;89.94;97759.73;105531;1288;25308;-87
2022/04/26 07:39:33;;;;;;;54.70;50.40;;;;;;;8.37;89.76;97761.49;105513;1287;23341;-90
2022/04/26 07:42:03;;;;;;;50.20;45.80;;;;;;;8.39;89.62;97766.62;105534;1286;22558;-89
2022/04/26 07:44:33;;;;;;;55.00;50.40;;;;;;;8.48;89.57;97764.52;105570;1287;23941;-89
2022/04/26 07:47:03;;;;;;;52.90;48.50;;;;;;;8.63;89.96;97765.34;105733;1287;23909;-88
2022/04/26 07:49:31;;;;;;;51.20;46.80;;;;;;;8.73;89.65;97769.09;105942;1286;25328;-87
2022/04/26 07:52:00;;;;;;;52.40;47.90;;;;;;;8.73;89.56;97775.10;105481;1286;22569;-89
2022/04/26 07:54:28;;;;;;;52.90;48.30;;;;;;;8.71;88.83;97776.95;105587;1287;22572;-89
2022/04/26 07:56:55;;;;;;;48.30;44.10;;;;;;;8.69;88.87;97776.48;105559;1286;22679;-87
2022/04/26 07:59:23;;;;;;;44.10;40.40;;;;;;;8.66;88.34;97778.30;105532;1286;22719;-89
2022/04/26 08:01:51;;;;;;;46.50;42.50;;;;;;;8.63;88.13;97776.56;105593;1287;22935;-87
2022/04/26 08:04:19;;;;;;;48.10;43.70;;;;;;;8.64;88.53;97775.65;105534;1287;22693;-88
2022/04/26 08:06:47;;;;;;;48.70;44.30;;;;;;;8.71;88.75;97778.78;105416;1288;23936;-86
2022/04/26 08:09:15;;;;;;;50.20;46.00;;;;;;;8.76;88.78;97779.25;105576;1287;23142;-90
2022/04/26 08:11:43;;;;;;;47.40;43.50;;;;;;;8.80;88.77;97782.69;105489;1286;22707;-88
2022/04/26 08:14:10;;;;;;;46.20;42.10;;;;;;;8.85;88.44;97789.77;105516;1287;25392;-90
2022/04/26 08:16:38;;;;;;;44.80;40.90;;;;;;;8.94;88.41;97789.44;105183;1287;24064;-89
2022/04/26 08:19:08;;;;;;;47.30;41.60;;;;;;;9.04;88.52;97792.13;105577;1288;24477;-88
2022/04/26 08:21:39;;;;;;;44.50;40.80;;;;;;;9.12;87.77;97792.98;105596;1287;25524;-86
2022/04/26 08:29:40;;;;;;;42.70;39.00;;;;;;;9.35;87.86;97798.27;105451;1287;25327;-89
2022/04/26 08:32:08;;;;;;;41.80;38.00;;;;;;;9.44;87.62;97801.81;105721;1287;25370;-86
2022/04/26 08:34:36;;;;;;;45.00;41.10;;;;;;;9.54;87.61;97803.14;105482;1287;25375;-88
2022/04/26 08:37:04;;;;;;;45.90;42.20;;;;;;;9.67;87.61;97804.27;105655;1287;23385;-89
2022/04/26 08:39:32;;;;;;;44.10;40.50;;;;;;;9.71;86.97;97804.44;105744;1286;22576;-86
2022/04/26 08:42:04;;;;;;;45.50;41.80;;;;;;;9.75;87.37;97805.38;105313;1287;24274;-89
2022/04/26 08:44:34;;;;;;;45.90;42.10;;;;;;;9.78;87.10;97813.20;105626;1285;22648;-87
2022/04/26 08:52:50;;;;;;;34.60;31.70;;;;;;;9.64;86.24;97815.90;106229;1287;24089;-88
2022/04/26 08:55:19;;;;;;;38.50;35.00;;;;;;;9.65;85.53;97816.43;106608;1287;22587;-87
2022/04/26 08:57:47;;;;;;;36.60;33.80;;;;;;;9.61;84.77;97820.24;106505;1287;25444;-88
2022/04/26 09:00:16;;;;;;;37.60;34.70;;;;;;;9.53;84.97;97816.73;106744;1286;22659;-87
2022/04/26 09:03:00;;;;;;;39.10;35.80;;;;;;;9.46;84.89;97815.80;106094;1286;22743;-89
2022/04/26 09:05:29;;;;;;;39.00;35.80;;;;;;;9.39;85.02;97815.34;106149;1286;22589;-88
2022/04/26 09:07:58;;;;;;;40.40;37.00;;;;;;;9.37;84.91;97820.36;106096;1287;25326;-88
2022/04/26 09:10:29;;;;;;;40.30;36.60;;;;;;;9.35;85.12;97821.40;105815;1286;24118;-89
2022/04/26 09:13:09;;;;;;;35.00;32.00;;;;;;;9.35;84.32;97825.34;105586;1287;25335;-89
2022/04/26 09:15:42;;;;;;;37.60;34.30;;;;;;;9.28;84.03;97827.10;105690;1285;25444;-90
2022/04/26 09:18:22;;;;;;;37.60;34.30;;;;;;;9.25;84.14;97831.18;105520;1286;22567;-90
2022/04/26 09:20:53;;;;;;;40.40;36.90;;;;;;;9.11;82.95;97833.70;105731;1287;26698;-89
2022/04/26 09:23:26;;;;;;;42.30;38.70;;;;;;;9.03;83.49;97831.48;105776;1286;23126;-91
2022/04/26 09:26:07;;;;;;;38.40;35.30;;;;;;;9.00;83.75;97834.06;105702;1286;23996;-88
2022/04/26 09:28:37;;;;;;;37.80;34.70;;;;;;;9.01;83.53;97831.52;105788;1286;24374;-91
2022/04/26 09:31:28;;;;;;;44.30;40.60;;;;;;;9.03;83.46;97833.75;105441;1286;24247;-88
2022/04/26 09:33:59;;;;;;;39.80;36.60;;;;;;;9.02;83.32;97835.10;105693;1286;22563;-88
2022/04/26 09:36:29;;;;;;;44.10;40.50;;;;;;;9.02;82.88;97838.48;105941;1286;22565;-87
2022/04/26 09:38:59;;;;;;;49.00;44.90;;;;;;;8.98;82.57;97838.39;108513;1286;22684;-86
2022/04/26 09:41:28;;;;;;;45.90;41.60;;;;;;;8.97;82.80;97835.77;108437;1286;23082;-86
2022/04/26 09:44:01;;;;;;;44.90;40.80;;;;;;;9.01;82.76;97834.95;108452;1286;22559;-89
2022/04/26 09:46:48;;;;;;;45.00;41.00;;;;;;;9.06;82.82;97834.46;108314;1286;22959;-86
2022/04/26 09:49:21;;;;;;;45.00;41.10;;;;;;;9.14;82.80;97834.79;106965;1286;22557;-91
2022/04/26 09:51:54;;;;;;;37.90;34.80;;;;;;;9.16;82.63;97836.00;105975;1286;26488;-90
2022/04/26 09:54:23;;;;;;;43.60;39.40;;;;;;;9.15;82.48;97834.71;105955;1286;22564;-90
2022/04/26 09:56:52;;;;;;;40.30;37.00;;;;;;;9.14;82.04;97836.49;105507;1287;22616;-89
2022/04/26 09:59:28;;;;;;;44.10;40.20;;;;;;;9.10;81.85;97833.44;105637;1286;22696;-91
2022/04/26 10:01:59;;;;;;;36.00;32.70;;;;;;;9.12;82.12;97833.90;105750;1286;25409;-88
2022/04/26 10:04:31;;;;;;;41.10;37.40;;;;;;;9.13;81.96;97831.24;105804;1286;22957;-89
2022/04/26 10:07:12;;;;;;;40.80;36.80;;;;;;;9.13;81.59;97839.15;105812;1286;22720;-90
2022/04/26 10:09:44;;;;;;;41.70;37.90;;;;;;;9.08;81.59;97838.45;105706;1286;22562;-89
2022/04/26 10:12:15;;;;;;;43.30;39.60;;;;;;;9.06;81.96;97838.34;105496;1286;22596;-87
2022/04/26 10:14:44;;;;;;;40.90;37.30;;;;;;;9.07;81.95;97836.92;105701;1287;26741;-85
2022/04/26 10:17:14;;;;;;;38.00;34.70;;;;;;;9.07;81.76;97837.25;105432;1287;164537;-87
2022/04/26 10:19:45;;;;;;;36.60;33.50;;;;;;;9.08;81.60;97841.53;106010;1286;22717;-89
2022/04/26 10:22:16;;;;;;;38.60;35.50;;;;;;;9.10;81.41;97841.02;106035;1286;22724;-91
2022/04/26 10:25:09;;;;;;;40.50;37.10;;;;;;;9.11;81.03;97842.19;106091;1285;22534;-89
2022/04/26 10:27:36;;;;;;;39.70;36.10;;;;;;;9.05;81.13;97843.07;105783;1287;23345;-92
2022/04/26 10:30:05;;;;;;;37.70;34.70;;;;;;;9.03;81.16;97845.36;106552;1286;22578;-89
2022/04/26 10:32:38;;;;;;;37.80;34.40;;;;;;;9.02;81.23;97847.63;107710;1287;22566;-85
2022/04/26 10:35:24;;;;;;;37.10;33.80;;;;;;;9.03;81.28;97849.23;108677;1276;22487;-86
2022/04/26 10:38:14;;;;;;;38.90;35.30;;;;;;;9.08;81.06;97849.54;108709;1274;22639;-86
2022/04/26 10:41:07;;;;;;;39.30;35.90;;;;;;;9.12;80.66;97851.42;108165;1284;22592;-89
2022/04/26 10:47:00;;;;;;;43.20;39.30;;;;;;;9.09;80.98;97852.37;107097;1288;25336;-89
2022/04/26 10:49:40;;;;;;;37.50;34.20;;;;;;;9.05;80.50;97851.09;105619;1288;22723;-89
2022/04/26 10:52:26;;;;;;;39.80;36.40;;;;;;;9.02;80.45;97853.44;105488;1288;24121;-89
2022/04/26 10:55:07;;;;;;;44.60;40.70;;;;;;;8.99;80.36;97848.05;105906;1288;24239;-90
2022/04/26 10:57:41;;;;;;;45.30;41.50;;;;;;;8.97;80.61;97852.16;105755;1288;25382;-90
2022/04/26 11:00:16;;;;;;;42.80;39.30;;;;;;;8.93;80.30;97852.69;105668;1290;22501;-89
2022/04/26 11:02:50;;;;;;;39.80;36.30;;;;;;;8.91;80.34;97851.59;105707;1289;22604;-91
2022/04/26 11:05:24;;;;;;;43.70;40.00;;;;;;;8.88;79.98;97858.67;105872;1288;22506;-90
2022/04/26 11:07:53;;;;;;;43.70;39.90;;;;;;;8.86;80.10;97853.80;105976;1291;23915;-88
2022/04/26 11:10:26;;;;;;;43.80;40.10;;;;;;;8.85;80.32;97857.09;105740;1290;22578;-92
2022/04/26 11:12:56;;;;;;;44.50;40.60;;;;;;;8.86;80.19;97855.46;105791;1288;22692;-89
2022/04/26 11:15:25;;;;;;;40.80;37.40;;;;;;;8.89;80.55;97856.84;105850;1290;23506;-89
2022/04/26 11:17:54;;;;;;;41.30;37.70;;;;;;;8.94;80.36;97858.28;106712;1290;22710;-91
2022/04/26 11:20:24;;;;;;;41.30;37.80;;;;;;;8.98;80.46;97858.80;106959;1290;22623;-90
2022/04/26 11:27:59;;;;;;;39.50;36.10;;;;;;;9.01;79.75;97863.55;107542;1288;24372;-88
2022/04/26 11:28:53;;;;;;;46.80;42.50;;;;;;;8.96;79.67;97866.58;105921;1286;22567;-89
2022/04/26 11:31:22;;;;;;;112.50;74.20;;;;;;;8.98;80.07;97864.23;107074;1274;22804;-90
2022/04/26 11:33:52;;;;;;;48.00;43.30;;;;;;;9.02;79.76;97866.59;106533;1284;22571;-90
2022/04/26 11:36:20;;;;;;;41.60;37.80;;;;;;;9.06;79.98;97867.77;105982;1286;23821;-90
2022/04/26 11:38:57;;;;;;;41.10;37.30;;;;;;;9.07;79.62;97870.30;106294;1286;22654;-90
2022/04/26 11:41:25;;;;;;;40.10;36.60;;;;;;;9.02;79.42;97873.05;107120;1286;22710;-91
2022/04/26 11:44:04;;;;;;;42.90;38.90;;;;;;;9.00;79.27;97875.45;107143;1286;24399;-87
2022/04/26 11:46:32;;;;;;;41.40;37.80;;;;;;;8.95;78.97;97870.67;106871;1285;22780;-89
2022/04/26 11:49:01;;;;;;;41.30;37.30;;;;;;;8.93;79.00;97868.98;106879;1286;22666;-89
2022/04/26 11:51:30;;;;;;;41.20;37.40;;;;;;;8.95;79.25;97871.59;107534;1286;22573;-90
2022/04/26 11:53:58;;;;;;;41.40;37.80;;;;;;;8.97;79.50;97872.90;107012;1286;22557;-91
2022/04/26 11:56:27;;;;;;;43.60;39.70;;;;;;;9.00;79.10;97875.92;108643;1274;23017;-87
2022/04/26 11:58:55;;;;;;;44.40;40.50;;;;;;;9.03;79.45;97872.88;106562;1283;22866;-87
2022/04/26 12:01:23;;;;;;;42.70;38.90;;;;;;;9.05;79.21;97876.67;106028;1284;22604;-92
2022/04/26 12:03:57;;;;;;;40.80;37.40;;;;;;;9.06;79.18;97875.31;106153;1283;24266;-85
2022/04/26 12:06:29;;;;;;;38.10;34.90;;;;;;;9.08;79.15;97880.55;106310;1282;22566;-91
2022/04/26 12:09:05;;;;;;;27.00;24.40;;;;;;;9.00;78.16;97887.66;106941;1283;22669;-91
2022/04/26 12:11:37;;;;;;;24.70;22.60;;;;;;;8.85;77.77;97884.61;106642;1283;25610;-86
2022/04/26 12:14:20;;;;;;;24.60;22.50;;;;;;;8.71;77.37;97880.74;108728;1282;24160;-88
2022/04/26 12:16:54;;;;;;;24.30;22.20;;;;;;;8.67;78.32;97880.14;107411;1283;25115;-93
2022/04/26 12:19:34;;;;;;;23.70;20.20;;;;;;;8.69;78.66;97878.78;106622;1283;26150;-91
2022/04/26 12:22:05;;;;;;;31.90;25.50;;;;;;;8.74;78.66;97874.70;106479;1283;23290;-90
2022/04/26 12:24:51;;;;;;;24.60;22.00;;;;;;;8.84;78.77;97880.05;106529;1283;25394;-90
2022/04/26 12:27:32;;;;;;;26.40;23.80;;;;;;;8.92;78.38;97877.81;106524;1285;22582;-91
2022/04/26 12:30:11;;;;;;;27.10;24.80;;;;;;;8.95;78.68;97876.91;107159;1284;22711;-93
2022/04/26 12:32:42;;;;;;;26.30;24.00;;;;;;;8.97;78.44;97878.61;107817;1284;23395;-93
2022/04/26 12:35:10;;;;;;;29.80;27.10;;;;;;;8.97;78.13;97876.66;106730;1286;23102;-91
2022/04/26 12:37:38;;;;;;;27.00;24.40;;;;;;;9.05;78.30;97877.85;106571;1285;22576;-91
2022/04/26 12:40:11;;;;;;;26.60;24.10;;;;;;;9.09;77.90;97880.00;106661;1285;22696;-93
2022/04/26 12:42:40;;;;;;;25.70;23.20;;;;;;;9.08;77.92;97877.48;106315;1286;22878;-92
2022/04/26 12:45:23;;;;;;;26.20;23.60;;;;;;;9.12;77.84;97878.84;107947;1286;22599;-90
2022/04/26 12:51:11;;;;;;;24.60;22.50;;;;;;;9.29;78.25;97870.70;106105;1285;22692;-88
2022/04/26 12:53:39;;;;;;;25.10;22.60;;;;;;;9.40;77.99;97870.18;106007;1286;23172;-90
2022/04/26 12:56:11;;;;;;;25.40;23.00;;;;;;;9.48;78.07;97868.81;106146;1286;25431;-92
2022/04/26 12:58:44;;;;;;;26.00;23.70;;;;;;;9.51;77.56;97865.11;107358;1286;25379;-90
2022/04/26 13:01:17;;;;;;;25.90;23.30;;;;;;;9.51;77.58;97869.35;107530;1285;22594;-91
2022/04/26 13:03:49;;;;;;;26.50;24.10;;;;;;;9.55;78.10;97865.52;106986;1286;22567;-88
2022/04/26 13:06:19;;;;;;;26.80;24.10;;;;;;;9.59;77.83;97867.58;107635;1285;22576;-86
2022/04/26 13:09:06;;;;;;;24.70;22.20;;;;;;;9.54;76.86;97865.00;108922;1285;22386;-85
2022/04/26 13:11:34;;;;;;;27.30;24.60;;;;;;;9.53;77.32;97867.08;108884;1285;22622;-84
2022/04/26 13:14:02;;;;;;;26.20;23.80;;;;;;;9.59;77.56;97869.41;108755;1285;22663;-88
2022/04/26 13:16:50;;;;;;;30.30;27.60;;;;;;;9.59;77.14;97867.25;108563;1285;22568;-86
2022/04/26 13:19:18;;;;;;;28.90;26.50;;;;;;;9.60;77.80;97865.68;108035;1286;24237;-82
2022/04/26 13:21:46;;;;;;;32.20;29.00;;;;;;;9.66;78.07;97865.21;108692;1284;22578;-87
2022/04/26 13:24:15;;;;;;;31.90;29.10;;;;;;;9.70;77.50;97866.44;108694;1284;22579;-88
2022/04/26 13:26:44;;;;;;;34.10;30.80;;;;;;;9.72;77.81;97868.02;107454;1285;23319;-88
2022/04/26 13:29:12;;;;;;;34.20;27.90;;;;;;;9.71;77.34;97869.63;105999;1286;25377;-86
2022/04/26 13:31:41;;;;;;;28.20;25.60;;;;;;;9.73;77.29;97870.05;106063;1286;22592;-91
2022/04/26 13:34:10;;;;;;;27.10;24.60;;;;;;;9.74;76.75;97867.60;105982;1284;22791;-88
2022/04/26 13:36:58;;;;;;;28.00;25.20;;;;;;;9.71;77.10;97872.02;105968;1286;22662;-86
2022/04/26 13:39:26;;;;;;;28.70;25.90;;;;;;;9.67;77.08;97868.36;105999;1286;23025;-89
2022/04/26 13:41:54;;;;;;;28.10;25.50;;;;;;;9.66;77.43;97866.98;105951;1286;22712;-88
2022/04/26 13:44:22;;;;;;;31.00;28.20;;;;;;;9.66;77.48;97868.60;106012;1286;22566;-87
2022/04/26 13:46:50;;;;;;;32.10;28.00;;;;;;;9.66;76.72;97868.76;106055;1285;22557;-88
2022/04/26 13:49:18;;;;;;;26.50;24.10;;;;;;;9.65;76.52;97865.81;105922;1286;25440;-87
2022/04/26 13:51:46;;;;;;;25.20;22.50;;;;;;;9.63;76.56;97868.53;106156;1286;22607;-84
2022/04/26 13:54:14;;;;;;;24.70;22.30;;;;;;;9.59;76.21;97870.86;108162;1285;25443;-88
2022/04/26 13:56:42;;;;;;;27.20;24.50;;;;;;;9.59;76.63;97865.54;106531;1286;22490;-92
2022/04/26 13:59:10;;;;;;;26.20;23.60;;;;;;;9.59;76.92;97865.36;106009;1286;22823;-90
2022/04/26 14:01:38;;;;;;;28.00;25.30;;;;;;;9.59;76.80;97867.35;106052;1286;22623;-91
2022/04/26 14:04:06;;;;;;;32.50;29.60;;;;;;;9.57;76.67;97865.77;106009;1285;25375;-90
2022/04/26 14:06:34;;;;;;;26.00;23.60;;;;;;;9.59;76.31;97868.39;106071;1286;24234;-88
2022/04/26 14:09:02;;;;;;;28.80;25.70;;;;;;;9.57;76.38;97865.44;105502;1286;22571;-92
2022/04/26 14:11:30;;;;;;;32.10;29.00;;;;;;;9.53;76.54;97866.69;106771;1286;22630;-92
2022/04/26 14:22:43;;;;;;;28.20;25.30;;;;;;;9.44;76.11;97868.81;108160;1285;22564;-88
2022/04/26 14:25:14;;;;;;;25.20;22.80;;;;;;;9.43;76.06;97867.64;107525;1286;22629;-92
2022/04/26 14:27:44;;;;;;;24.40;22.00;;;;;;;9.42;75.92;97870.95;107919;1286;22593;-87
2022/04/26 14:30:12;;;;;;;26.50;23.60;;;;;;;9.38;75.74;97870.05;107988;1286;22562;-89
2022/04/26 14:33:00;;;;;;;26.60;24.00;;;;;;;9.32;75.94;97874.58;108391;1284;23034;-86
2022/04/26 14:35:29;;;;;;;25.60;23.10;;;;;;;9.29;76.15;97875.29;108114;1284;22762;-93
2022/04/26 14:37:58;;;;;;;26.60;23.90;;;;;;;9.27;75.97;97875.48;106632;1285;22746;-93
2022/04/26 14:40:26;;;;;;;29.40;26.60;;;;;;;9.28;76.11;97877.11;107035;1285;22574;-91
2022/04/26 14:42:54;;;;;;;26.80;24.30;;;;;;;9.32;76.25;97876.15;106126;1287;25378;-90
2022/04/26 14:45:25;;;;;;;26.90;24.10;;;;;;;9.32;76.11;97879.10;106060;1287;22696;-88
2022/04/26 14:47:54;;;;;;;27.80;25.10;;;;;;;9.31;76.51;97878.30;106446;1286;22499;-90
2022/04/26 14:50:22;;;;;;;28.90;26.10;;;;;;;9.31;76.24;97872.88;106105;1286;23217;-88
2022/04/26 14:52:51;;;;;;;28.70;25.70;;;;;;;9.30;76.05;97872.46;106532;1286;24019;-91
2022/04/26 14:55:20;;;;;;;30.60;27.60;;;;;;;9.31;76.15;97873.31;106336;1287;22556;-90
2022/04/26 14:57:48;;;;;;;31.10;27.90;;;;;;;9.32;76.28;97873.73;106006;1287;22579;-89
2022/04/26 15:00:17;;;;;;;28.10;25.50;;;;;;;9.33;76.19;97872.05;106355;1286;22558;-92
2022/04/26 15:02:47;;;;;;;39.60;26.60;;;;;;;9.32;75.63;97875.34;106532;1286;22595;-91
2022/04/26 15:05:14;;;;;;;28.80;26.10;;;;;;;9.31;75.97;97877.12;106096;1286;22584;-94
2022/04/26 15:10:29;;;;;;;28.30;25.40;;;;;;;9.25;75.94;97877.16;107245;1286;22545;-93
2022/04/26 15:18:33;;;;;;;31.50;28.70;;;;;;;9.25;75.53;97876.73;106209;1286;22665;-90
2022/04/26 15:21:06;;;;;;;32.60;29.50;;;;;;;9.25;75.76;97876.13;105405;1289;25344;-87
2022/04/26 15:23:35;;;;;;;34.20;31.10;;;;;;;9.26;76.13;97880.41;105923;1286;25411;-86
2022/04/26 15:26:06;;;;;;;33.80;30.70;;;;;;;9.28;76.11;97883.23;106008;1287;26668;-87
2022/04/26 15:28:34;;;;;;;33.30;30.20;;;;;;;9.27;75.78;97886.83;105739;1287;22596;-87
2022/04/26 15:31:05;;;;;;;32.40;29.30;;;;;;;9.24;75.73;97890.19;105718;1286;22607;-88
2022/04/26 15:33:34;;;;;;;33.10;29.80;;;;;;;9.23;75.91;97885.05;107519;1286;22646;-88
2022/04/26 15:36:02;;;;;;;32.80;29.80;;;;;;;9.21;75.83;97888.08;106148;1287;22657;-87
2022/04/26 15:44:12;;;;;;;33.90;30.90;;;;;;;9.11;75.55;97890.69;105844;1286;24212;-87
2022/04/26 15:46:41;;;;;;;35.20;32.00;;;;;;;9.05;76.03;97891.61;105791;1287;23135;-86
2022/04/26 15:49:13;;;;;;;33.70;30.60;;;;;;;9.02;75.47;97890.95;105632;1287;22811;-88
2022/04/26 15:51:42;;;;;;;33.50;30.40;;;;;;;9.00;75.56;97889.70;105543;1286;25314;-87
2022/04/26 15:58:35;;;;;;;35.20;31.50;;;;;;;9.01;75.88;97893.30;106524;1286;24473;-91
2022/04/26 16:01:03;;;;;;;38.30;34.50;;;;;;;9.00;75.78;97894.69;106010;1287;22599;-91
2022/04/26 16:20:29;;;;;;;37.20;33.70;;;;;;;8.86;75.27;97892.29;106463;1287;22637;-92
2022/04/26 16:23:02;;;;;;;36.90;33.60;;;;;;;8.85;75.02;97892.30;106493;1286;23164;-91